• Join FlightAware (Why Join?)
  • Login
  • US Flag 
01:30AM EDT


 

Airport Tracker/Info


-or-


 

Live Flight TrackerFlight Track Log ✈ DAL1205 ✈ 20-Apr-2013 ✈ KATL - KBNA

Flight Track Log - Related Links

Times and Time Zones

All times are in EDT time to prevent confusion due to time zone crossing. See the DAL1205 flight status page for this flight to view local times or setup timezone preferences in your user account.

Time Position Orientation Groundspeed Altitude Reporting Facility
EDT Latitude Longitude Course Direction KTS MPH feet Rate Location/Type
07:12PM 33.6500 -84.4667 342° North 171 197 2,400  Level Atlanta TRACON
07:13PM 33.6667 -84.5333 287° West 251 289 5,100 3,000 Climbing Atlanta TRACON
07:14PM 33.8756 -84.5667 North  Level FlightAware Approximate
07:14PM 33.7333 -84.5833 328° Northwest 284 327 8,500  Level Atlanta TRACON
07:15PM 33.9794 -84.6050 342° North  Level FlightAware Approximate
07:16PM 34.0828 -84.6463 342° North  Level FlightAware Approximate
07:16PM 33.9308 -84.5972 357° North 348 400 13,000  Level Atlanta Center
07:17PM 34.1861 -84.6878 342° North  Level FlightAware Approximate
07:17PM 34.0350 -84.6328 344° North 379 436 15,800  Level Atlanta Center
07:18PM 34.1475 -84.6739 343° North 402 463 18,200 2,340 Climbing Atlanta Center
07:19PM 34.2683 -84.7225 342° North 414 476 20,500 2,280 Climbing Atlanta Center
07:20PM 34.3700 -84.7989 328° Northwest 419 482 22,800 2,340 Climbing Atlanta Center
07:21PM 34.4697 -84.8728 329° Northwest 425 489 25,200 1,560 Climbing Atlanta Center
07:22PM 34.5694 -84.9494 328° Northwest 425 489 26,000 360 Climbing Atlanta Center
07:23PM 34.6669 -85.0236 328° Northwest 419 482 26,000  Level Atlanta Center
07:24PM 34.7622 -85.0981 327° Northwest 414 476 26,000  Level Atlanta Center
07:25PM 34.8597 -85.1753 327° Northwest 414 476 26,000 -720 Level Atlanta Center
07:27PM 35.0208 -85.2961 328° Northwest 422 486 24,200 -780 Descending Memphis Center
07:28PM 35.1158 -85.3714 327° Northwest 422 486 24,000 -540 Descending Memphis Center
07:29PM 35.2047 -85.4603 321° Northwest 422 486 23,200 -1,140 Descending Memphis Center
07:30PM 35.2817 -85.5600 313° West 415 478 21,800 -1,380 Descending Memphis Center
07:31PM 35.3564 -85.6575 313° West 405 466 20,500 -1,320 Descending Memphis Center
07:32PM 35.4308 -85.7553 313° West 399 459 19,200 2,700 Descending Memphis Center
07:33PM 35.5053 -85.8506 314° West 399 459 26,000 -1,560 Climbing Memphis Center
07:34PM 35.5753 -85.9439 313° West 393 452 16,100 -6,360 Descending Memphis Center
07:35PM 35.6453 -86.0372 313° West 382 440 13,300 -2,700 Descending Memphis Center
07:36PM 35.7153 -86.1306 313° West 376 433 10,800 -1,680 Descending Memphis Center
07:37PM 35.7661 -86.2150 307° West 342 394 10,000 -1,020 Descending Memphis Center
07:38PM 35.7981 -86.3003 295° West 294 338 8,800 -1,380 Descending Memphis Center
07:39PM 35.8239 -86.3836 291° West 271 312 7,300 -1,680 Descending Memphis Center
07:40PM 35.8556 -86.4639 296° West 263 303 5,500 -1,800 Descending Memphis Center
07:41PM 35.8872 -86.5419 297° West 263 303 3,800 -1,260 Descending Memphis Center
07:42PM 35.9125 -86.6203 292° West 254 292 3,000 -420 Descending Memphis Center
07:43PM 35.9497 -86.6800 308° West 223 257 3,000  Level Memphis Center